Terminal Aerodrome Forecast
Issued by NWS Mt. Holly, NJ

Home | Current Version | Previous Version | Text Only | Print | Product List | Glossary On
Versions: 1 2 3 4 5 6 7 8 9 10 11 12 13 14 15 16 17 18 19 20 21 22
000
FTUS41 KPHI 220200 CCA
TAFABE
TAF COR
KABE 220257Z 2203/2224 10006KT P6SM SCT012 OVC040
      TEMPO 2203/2206 3SM TSRA BR OVC012CB
     FM220600 VRB03KT P6SM BKN040
      TEMPO 2206/2208 3SM -SHRA BR OVC020
     FM220800 VRB03KT 3SM -SHRA BR OVC015
     FM221600 09006KT P6SM BKN035=

USA.gov is the U.S. government's official web portal to all federal, state and local government web resources and services.